createdAt,value
2022-08-16T00:00:04.459Z,17.58
2022-08-16T00:00:58.176Z,17.53
2022-08-16T00:01:59.833Z,17.48
2022-08-16T00:02:58.025Z,17.53
2022-08-16T00:03:57.952Z,17.44
2022-08-16T00:05:00.016Z,17.53
2022-08-16T00:05:58.026Z,17.39
2022-08-16T00:06:57.722Z,17.46
2022-08-16T00:07:57.647Z,17.39
2022-08-16T00:08:57.570Z,17.46
2022-08-16T00:09:57.512Z,17.48
2022-08-16T00:10:57.422Z,17.53
2022-08-16T00:11:57.343Z,17.54
2022-08-16T00:12:57.269Z,17.57
2022-08-16T00:13:57.191Z,17.40
2022-08-16T00:14:57.284Z,17.33
2022-08-16T00:15:57.045Z,17.33
2022-08-16T00:17:05.987Z,17.32
2022-08-16T00:17:57.484Z,17.30
2022-08-16T00:18:56.815Z,17.32
2022-08-16T00:19:56.735Z,17.40
2022-08-16T00:20:56.665Z,17.38
2022-08-16T00:22:01.613Z,17.29
2022-08-16T00:22:56.511Z,17.35
2022-08-16T00:23:56.437Z,17.33
2022-08-16T00:24:56.358Z,17.44
2022-08-16T00:26:36.333Z,17.44
2022-08-16T00:26:56.209Z,17.51
2022-08-16T00:27:56.141Z,17.46
2022-08-16T00:28:56.059Z,17.43
2022-08-16T00:30:09.026Z,17.32
2022-08-16T00:30:55.908Z,17.30
2022-08-16T00:32:00.419Z,17.29
2022-08-16T00:32:56.956Z,17.23
2022-08-16T00:33:55.677Z,17.30
2022-08-16T00:34:55.606Z,17.15
2022-08-16T00:35:55.523Z,17.26
2022-08-16T00:36:55.694Z,17.26
2022-08-16T00:37:58.007Z,17.21
2022-08-16T00:38:56.309Z,17.15
2022-08-16T00:39:58.160Z,17.18
2022-08-16T00:40:55.176Z,17.23
2022-08-16T00:41:55.068Z,17.21
2022-08-16T00:42:55.170Z,17.20
2022-08-16T00:43:54.918Z,17.25
2022-08-16T00:44:54.843Z,17.21
2022-08-16T00:46:00.333Z,17.30
2022-08-16T00:47:02.402Z,17.35
2022-08-16T00:47:54.612Z,17.20
2022-08-16T00:48:54.540Z,17.28
2022-08-16T00:49:56.719Z,17.29
2022-08-16T00:50:55.392Z,17.35
2022-08-16T00:51:54.937Z,17.32
2022-08-16T00:52:54.634Z,17.33
2022-08-16T00:53:54.159Z,17.26
2022-08-16T00:54:54.089Z,17.30
2022-08-16T00:55:54.004Z,17.43
2022-08-16T00:56:57.553Z,17.44
2022-08-16T00:57:59.558Z,17.47
2022-08-16T00:58:53.779Z,17.30
2022-08-16T00:59:58.929Z,17.40
2022-08-16T01:00:54.189Z,17.20
2022-08-16T01:01:53.553Z,17.13
2022-08-16T01:02:53.478Z,17.15
2022-08-16T01:03:53.397Z,16.95
2022-08-16T01:05:11.048Z,16.95
2022-08-16T01:05:53.246Z,16.81
2022-08-16T01:07:02.109Z,16.85
2022-08-16T01:07:53.465Z,16.84
2022-08-16T01:08:53.020Z,16.84
2022-08-16T01:09:52.943Z,16.99
2022-08-16T01:10:52.900Z,17.02
2022-08-16T01:11:55.031Z,17.13
2022-08-16T01:12:52.718Z,17.08
2022-08-16T01:13:53.071Z,17.13
2022-08-16T01:14:53.352Z,17.15
2022-08-16T01:15:53.588Z,17.13
2022-08-16T01:16:52.412Z,17.05
2022-08-16T01:17:52.334Z,16.99
2022-08-16T01:18:52.261Z,16.93
2022-08-16T01:19:52.182Z,16.88
2022-08-16T01:20:52.106Z,16.75
2022-08-16T01:21:52.029Z,16.67
2022-08-16T01:22:52.453Z,16.57
2022-08-16T01:23:58.600Z,16.50
2022-08-16T01:24:55.343Z,16.56
2022-08-16T01:25:59.714Z,16.56
2022-08-16T01:26:51.650Z,16.63
2022-08-16T01:27:51.572Z,16.65
2022-08-16T01:28:51.498Z,16.67
2022-08-16T01:29:58.460Z,16.78
2022-08-16T01:30:51.346Z,16.80
2022-08-16T01:31:51.267Z,16.85
2022-08-16T01:33:02.173Z,16.84
2022-08-16T01:33:51.115Z,16.96
2022-08-16T01:34:53.829Z,16.95
2022-08-16T01:35:52.752Z,16.99
2022-08-16T01:36:58.176Z,17.00
2022-08-16T01:37:53.860Z,17.10
2022-08-16T01:38:57.242Z,17.05
2022-08-16T01:39:50.718Z,16.99
2022-08-16T01:40:50.582Z,16.92
2022-08-16T01:41:50.507Z,16.82
2022-08-16T01:42:52.173Z,16.67
2022-08-16T01:43:53.625Z,16.48
2022-08-16T01:44:50.277Z,16.34
2022-08-16T01:45:54.109Z,16.37
2022-08-16T01:46:50.127Z,16.35
2022-08-16T01:47:51.000Z,16.37
2022-08-16T01:48:49.972Z,16.30
2022-08-16T01:50:43.209Z,16.35
2022-08-16T01:51:09.423Z,16.34
2022-08-16T01:51:49.742Z,16.35
2022-08-16T01:52:49.780Z,16.37
2022-08-16T01:53:54.737Z,16.38
2022-08-16T01:54:49.521Z,16.35
2022-08-16T01:55:53.753Z,16.37
2022-08-16T01:56:49.363Z,16.44
2022-08-16T01:57:53.511Z,16.44
2022-08-16T01:58:49.211Z,16.45
2022-08-16T01:59:49.138Z,16.47
2022-08-16T02:00:49.055Z,16.45
2022-08-16T02:01:49.697Z,16.37
2022-08-16T02:02:52.460Z,16.38
2022-08-16T02:03:50.354Z,16.30
2022-08-16T02:04:54.761Z,16.40
2022-08-16T02:05:52.142Z,16.40
2022-08-16T02:06:48.598Z,16.35
2022-08-16T02:07:48.520Z,16.30
2022-08-16T02:08:48.444Z,16.26
2022-08-16T02:09:56.849Z,16.26
2022-08-16T02:10:48.296Z,16.26
2022-08-16T02:11:53.281Z,16.30
2022-08-16T02:12:52.142Z,16.30
2022-08-16T02:13:48.060Z,16.25
2022-08-16T02:14:47.987Z,16.20
2022-08-16T02:15:47.910Z,16.14
2022-08-16T02:16:47.831Z,16.23
2022-08-16T02:17:47.758Z,16.20
2022-08-16T02:18:47.680Z,16.20
2022-08-16T02:19:58.745Z,16.18
2022-08-16T02:20:47.532Z,16.14
2022-08-16T02:22:09.205Z,16.14
2022-08-16T02:22:47.382Z,16.27
2022-08-16T02:23:47.302Z,16.26
2022-08-16T02:24:47.222Z,16.25
2022-08-16T02:25:52.279Z,16.38
2022-08-16T02:26:47.068Z,16.33
2022-08-16T02:27:50.733Z,16.42
2022-08-16T02:28:47.170Z,16.33
2022-08-16T02:29:46.842Z,16.33
2022-08-16T02:30:50.878Z,16.29
2022-08-16T02:32:03.500Z,16.38
2022-08-16T02:32:51.063Z,16.37
2022-08-16T02:33:50.205Z,16.30
2022-08-16T02:34:46.456Z,16.38
2022-08-16T02:35:54.607Z,16.29
2022-08-16T02:36:49.973Z,16.35
2022-08-16T02:37:52.338Z,16.25
2022-08-16T02:38:46.150Z,16.18
2022-08-16T02:39:46.105Z,16.15
2022-08-16T02:40:45.996Z,16.08
2022-08-16T02:41:45.921Z,15.97
2022-08-16T02:42:45.853Z,15.88
2022-08-16T02:43:45.768Z,15.88
2022-08-16T02:44:45.689Z,15.94
2022-08-16T02:45:45.616Z,16.03
2022-08-16T02:46:50.429Z,16.07
2022-08-16T02:48:01.122Z,16.10
2022-08-16T02:48:49.186Z,16.01
2022-08-16T02:50:01.447Z,16.01
2022-08-16T02:50:53.545Z,15.97
2022-08-16T02:51:45.156Z,15.96
2022-08-16T02:52:45.079Z,15.94
2022-08-16T02:53:45.133Z,15.96
2022-08-16T02:54:44.927Z,16.03
2022-08-16T02:55:44.849Z,16.01
2022-08-16T02:56:48.053Z,16.12
2022-08-16T02:57:54.146Z,16.16
2022-08-16T02:58:44.617Z,16.10
2022-08-16T02:59:44.543Z,16.15
2022-08-16T03:00:45.682Z,16.15
2022-08-16T03:01:44.420Z,16.15
2022-08-16T03:02:44.379Z,16.06
2022-08-16T03:04:41.436Z,15.96
2022-08-16T03:04:52.333Z,16.04
2022-08-16T03:05:44.084Z,15.97
2022-08-16T03:06:44.007Z,16.03
2022-08-16T03:07:43.929Z,16.03
2022-08-16T03:08:51.970Z,16.03
2022-08-16T03:09:44.206Z,15.99
2022-08-16T03:10:43.701Z,15.96
2022-08-16T03:11:43.618Z,15.88
2022-08-16T03:12:56.422Z,15.97
2022-08-16T03:13:43.469Z,15.89
2022-08-16T03:14:43.396Z,15.89
2022-08-16T03:15:43.316Z,15.99
2022-08-16T03:16:58.655Z,16.01
2022-08-16T03:17:53.958Z,15.89
2022-08-16T03:18:43.084Z,15.86
2022-08-16T03:19:48.233Z,15.78
2022-08-16T03:20:42.930Z,15.78
2022-08-16T03:21:42.855Z,15.86
2022-08-16T03:22:45.316Z,15.88
2022-08-16T03:23:42.700Z,15.96
2022-08-16T03:24:42.624Z,15.94
2022-08-16T03:25:44.008Z,16.01
2022-08-16T03:26:42.471Z,15.94
2022-08-16T03:27:42.777Z,15.92
2022-08-16T03:28:42.317Z,15.91
2022-08-16T03:29:54.261Z,15.79
2022-08-16T03:30:42.164Z,15.82
2022-08-16T03:31:42.091Z,15.75
2022-08-16T03:32:42.010Z,15.70
2022-08-16T03:33:41.932Z,15.71
2022-08-16T03:34:41.856Z,15.71
2022-08-16T03:35:41.781Z,15.73
2022-08-16T03:36:41.703Z,15.78
2022-08-16T03:38:01.673Z,15.86
2022-08-16T03:38:41.549Z,15.83
2022-08-16T03:39:42.577Z,15.83
2022-08-16T03:40:41.402Z,15.81
2022-08-16T03:41:50.619Z,15.81
2022-08-16T03:43:00.455Z,15.82
2022-08-16T03:43:52.029Z,15.82
2022-08-16T03:44:47.437Z,15.83
2022-08-16T03:45:41.008Z,15.76
2022-08-16T03:46:47.678Z,15.76
2022-08-16T03:47:40.856Z,15.82
2022-08-16T03:48:40.779Z,15.70
2022-08-16T03:49:40.704Z,15.70
2022-08-16T03:50:40.627Z,15.70
2022-08-16T03:51:40.551Z,15.61
2022-08-16T03:52:43.793Z,15.59
2022-08-16T03:53:40.396Z,15.60
2022-08-16T03:54:52.966Z,15.57
2022-08-16T03:55:45.301Z,15.57
2022-08-16T03:56:40.165Z,15.55
2022-08-16T03:57:40.088Z,15.61
2022-08-16T03:58:40.014Z,15.63
2022-08-16T03:59:39.942Z,15.67
2022-08-16T04:00:40.970Z,15.63
2022-08-16T04:01:39.846Z,15.61
2022-08-16T04:02:40.340Z,15.75
2022-08-16T04:03:39.629Z,15.61
2022-08-16T04:04:39.551Z,15.66
2022-08-16T04:05:39.475Z,15.71
2022-08-16T04:06:39.395Z,15.70
2022-08-16T04:07:39.318Z,15.71
2022-08-16T04:08:39.671Z,15.73
2022-08-16T04:09:39.169Z,15.71
2022-08-16T04:10:39.092Z,15.82
2022-08-16T04:11:39.010Z,15.83
2022-08-16T04:13:04.266Z,15.79
2022-08-16T04:13:59.224Z,15.81
2022-08-16T04:14:46.389Z,15.78
2022-08-16T04:15:38.702Z,15.78
2022-08-16T04:16:38.627Z,15.83
2022-08-16T04:17:38.549Z,15.79
2022-08-16T04:18:38.476Z,15.78
2022-08-16T04:19:38.393Z,15.83
2022-08-16T04:20:38.322Z,15.76
2022-08-16T04:21:46.123Z,15.78
2022-08-16T04:22:42.371Z,15.81
2022-08-16T04:23:38.088Z,15.78
2022-08-16T04:24:38.014Z,15.88
2022-08-16T04:25:37.933Z,15.88
2022-08-16T04:26:37.858Z,15.94
2022-08-16T04:27:37.780Z,15.89
2022-08-16T04:28:56.679Z,15.88
2022-08-16T04:29:44.166Z,15.91
2022-08-16T04:30:37.549Z,15.85
2022-08-16T04:31:37.471Z,15.96
2022-08-16T04:32:37.397Z,15.89
2022-08-16T04:33:37.322Z,15.97
2022-08-16T04:34:37.247Z,16.06
2022-08-16T04:35:37.168Z,16.01
2022-08-16T04:36:37.088Z,16.03
2022-08-16T04:37:42.173Z,16.06
2022-08-16T04:38:36.935Z,16.12
2022-08-16T04:39:46.701Z,16.10
2022-08-16T04:40:36.869Z,16.15
2022-08-16T04:41:37.290Z,16.07
2022-08-16T04:42:38.271Z,16.12
2022-08-16T04:43:36.547Z,16.12
2022-08-16T04:44:53.937Z,16.14
2022-08-16T04:45:37.002Z,16.07
2022-08-16T04:47:03.416Z,16.06
2022-08-16T04:47:36.242Z,16.07
2022-08-16T04:48:36.167Z,16.10
2022-08-16T04:49:38.728Z,16.08
2022-08-16T04:50:37.204Z,16.18
2022-08-16T04:51:36.306Z,16.23
2022-08-16T04:52:46.293Z,16.23
2022-08-16T04:53:35.783Z,16.22
2022-08-16T04:54:35.707Z,16.20
2022-08-16T04:55:37.950Z,16.12
2022-08-16T04:56:35.554Z,16.15
2022-08-16T04:57:35.481Z,16.22
2022-08-16T04:58:44.920Z,16.15
2022-08-16T04:59:35.325Z,16.16
2022-08-16T05:00:35.246Z,16.12
2022-08-16T05:01:57.927Z,16.23
2022-08-16T05:02:41.568Z,16.16
2022-08-16T05:03:35.020Z,16.18
2022-08-16T05:04:34.941Z,16.14
2022-08-16T05:05:36.865Z,16.18
2022-08-16T05:06:42.420Z,16.20
2022-08-16T05:07:34.704Z,16.16
2022-08-16T05:08:34.630Z,16.22
2022-08-16T05:09:36.493Z,16.38
2022-08-16T05:10:34.477Z,16.35
2022-08-16T05:11:34.397Z,16.33
2022-08-16T05:12:34.322Z,16.26
2022-08-16T05:13:39.968Z,16.35
2022-08-16T05:14:45.380Z,16.40
2022-08-16T05:15:34.092Z,16.41
2022-08-16T05:16:34.026Z,16.38
2022-08-16T05:17:33.942Z,16.47
2022-08-16T05:18:33.865Z,16.40
2022-08-16T05:19:36.166Z,16.40
2022-08-16T05:20:38.438Z,16.45
2022-08-16T05:21:38.555Z,16.44
2022-08-16T05:22:33.556Z,16.47
2022-08-16T05:23:33.476Z,16.55
2022-08-16T05:24:33.401Z,16.53
2022-08-16T05:25:41.268Z,16.57
2022-08-16T05:26:33.250Z,16.56
2022-08-16T05:27:33.169Z,16.52
2022-08-16T05:28:37.604Z,16.66
2022-08-16T05:29:57.162Z,16.70
2022-08-16T05:30:35.337Z,16.71
2022-08-16T05:31:32.866Z,16.73
2022-08-16T05:32:36.436Z,16.71
2022-08-16T05:33:32.710Z,16.71
2022-08-16T05:34:32.634Z,16.66
2022-08-16T05:35:32.646Z,16.65
2022-08-16T05:36:33.961Z,16.71
2022-08-16T05:37:39.799Z,16.73
2022-08-16T05:38:39.322Z,16.77
2022-08-16T05:39:33.372Z,16.75
2022-08-16T05:40:32.173Z,16.85
2022-08-16T05:41:32.098Z,16.85
2022-08-16T05:42:35.586Z,16.82
2022-08-16T05:43:43.153Z,16.96
2022-08-16T05:44:31.868Z,16.93
2022-08-16T05:45:31.789Z,16.99
2022-08-16T05:46:31.782Z,17.05
2022-08-16T05:47:31.636Z,16.99
2022-08-16T05:48:31.560Z,16.98
2022-08-16T05:49:38.831Z,16.96
2022-08-16T05:50:34.340Z,17.00
2022-08-16T05:51:38.150Z,17.02
2022-08-16T05:52:31.256Z,17.11
2022-08-16T05:53:31.177Z,17.07
2022-08-16T05:54:31.100Z,17.03
2022-08-16T05:55:31.023Z,17.10
2022-08-16T05:56:30.947Z,17.13
2022-08-16T05:57:34.375Z,17.14
2022-08-16T05:58:32.794Z,17.18
2022-08-16T05:59:30.715Z,17.21
2022-08-16T06:00:30.652Z,17.21
2022-08-16T06:01:32.873Z,17.15
2022-08-16T06:02:30.488Z,17.15
2022-08-16T06:03:30.411Z,17.15
2022-08-16T06:04:34.454Z,17.26
2022-08-16T06:05:30.257Z,17.21
2022-08-16T06:06:30.181Z,17.21
2022-08-16T06:07:31.992Z,17.23
2022-08-16T06:08:31.641Z,17.18
2022-08-16T06:09:37.220Z,17.28
2022-08-16T06:10:32.540Z,17.35
2022-08-16T06:11:29.797Z,17.29
2022-08-16T06:12:29.724Z,17.35
2022-08-16T06:13:32.484Z,17.44
2022-08-16T06:14:29.567Z,17.47
2022-08-16T06:15:30.651Z,17.51
2022-08-16T06:16:29.424Z,17.54
2022-08-16T06:17:43.855Z,17.58
2022-08-16T06:18:29.264Z,17.58
2022-08-16T06:19:29.187Z,17.67
2022-08-16T06:20:35.212Z,17.64
2022-08-16T06:21:29.034Z,17.73
2022-08-16T06:22:39.518Z,17.66
2022-08-16T06:23:28.882Z,17.69
2022-08-16T06:24:53.390Z,17.58
2022-08-16T06:25:36.272Z,17.60
2022-08-16T06:26:37.030Z,17.73
2022-08-16T06:27:28.575Z,17.67
2022-08-16T06:28:35.016Z,17.71
2022-08-16T06:29:28.422Z,17.70
2022-08-16T06:30:28.633Z,17.77
2022-08-16T06:31:28.273Z,17.82
2022-08-16T06:32:30.250Z,17.85
2022-08-16T06:33:28.117Z,17.91
2022-08-16T06:34:55.535Z,18.03
2022-08-16T06:35:27.980Z,17.95
2022-08-16T06:36:27.888Z,18.00
2022-08-16T06:37:37.021Z,18.06
2022-08-16T06:38:33.935Z,18.14
2022-08-16T06:39:27.672Z,18.19
2022-08-16T06:40:27.624Z,18.19
2022-08-16T06:41:27.799Z,18.18
2022-08-16T06:42:27.710Z,18.14
2022-08-16T06:43:28.403Z,18.18
2022-08-16T06:44:27.279Z,18.21
2022-08-16T06:45:29.110Z,18.31
2022-08-16T06:46:31.999Z,18.31
2022-08-16T06:47:53.633Z,18.29
2022-08-16T06:48:32.963Z,18.39
2022-08-16T06:49:26.896Z,18.40
2022-08-16T06:50:29.229Z,18.42
2022-08-16T06:51:45.660Z,18.57
2022-08-16T06:52:59.757Z,18.53
2022-08-16T06:53:26.589Z,18.67
2022-08-16T06:54:26.516Z,18.65
2022-08-16T06:55:28.931Z,18.67
2022-08-16T06:56:26.365Z,18.65
2022-08-16T06:57:26.288Z,18.64
2022-08-16T06:58:31.363Z,18.80
2022-08-16T06:59:26.171Z,18.83
2022-08-16T07:00:26.059Z,18.82
2022-08-16T07:01:44.810Z,18.80
2022-08-16T07:02:33.349Z,18.94
2022-08-16T07:03:28.078Z,18.97
2022-08-16T07:04:31.549Z,19.08
2022-08-16T07:05:27.220Z,19.09
2022-08-16T07:06:26.488Z,19.20
2022-08-16T07:07:25.528Z,19.21
2022-08-16T07:08:25.455Z,19.28
2022-08-16T07:09:25.376Z,19.27
2022-08-16T07:10:26.617Z,19.31
2022-08-16T07:11:47.166Z,19.39
2022-08-16T07:12:36.622Z,19.46
2022-08-16T07:13:57.781Z,19.54
2022-08-16T07:14:27.205Z,19.57
2022-08-16T07:15:25.262Z,19.63
2022-08-16T07:16:27.585Z,19.68
2022-08-16T07:17:24.773Z,19.87
2022-08-16T07:18:24.861Z,19.95
2022-08-16T07:20:01.844Z,20.01
2022-08-16T07:20:35.701Z,20.08
2022-08-16T07:21:24.472Z,20.08
2022-08-16T07:22:38.047Z,20.23
2022-08-16T07:23:38.631Z,20.31
2022-08-16T07:24:30.593Z,20.40
2022-08-16T07:25:24.169Z,20.50
2022-08-16T07:26:25.362Z,20.49
2022-08-16T07:27:24.017Z,20.61
2022-08-16T07:28:24.354Z,20.79
2022-08-16T07:29:23.870Z,20.71
2022-08-16T07:30:39.043Z,20.80
2022-08-16T07:31:23.720Z,20.99
2022-08-16T07:32:29.301Z,20.99
2022-08-16T07:33:52.866Z,21.12
2022-08-16T07:34:34.810Z,21.23
2022-08-16T07:35:23.417Z,21.35
2022-08-16T07:36:23.348Z,21.45
2022-08-16T07:37:23.744Z,21.54
2022-08-16T07:38:33.728Z,21.64
2022-08-16T07:39:23.174Z,21.69
2022-08-16T07:40:49.133Z,21.72
2022-08-16T07:41:22.969Z,21.81
2022-08-16T07:42:28.494Z,21.91
2022-08-16T07:43:22.820Z,21.94
2022-08-16T07:44:22.743Z,21.92
2022-08-16T07:45:22.670Z,21.92
2022-08-16T07:46:39.233Z,22.02
2022-08-16T07:47:24.550Z,22.08
2022-08-16T07:48:22.455Z,22.05
2022-08-16T07:49:22.376Z,22.17
2022-08-16T07:50:55.713Z,22.24
2022-08-16T07:51:22.225Z,22.24
2022-08-16T07:52:22.150Z,22.37
2022-08-16T07:53:22.078Z,22.23
2022-08-16T07:54:32.110Z,22.32
2022-08-16T07:55:21.931Z,22.34
2022-08-16T07:56:21.855Z,22.46
2022-08-16T07:57:21.784Z,22.46
2022-08-16T07:58:33.697Z,22.56
2022-08-16T07:59:21.632Z,22.72
2022-08-16T08:00:21.585Z,22.79
2022-08-16T08:01:21.508Z,22.89
2022-08-16T08:02:21.416Z,22.94
2022-08-16T08:03:21.339Z,23.07
2022-08-16T08:04:21.268Z,22.93
2022-08-16T08:05:25.582Z,23.23
2022-08-16T08:06:21.118Z,23.23
2022-08-16T08:07:21.046Z,23.35
2022-08-16T08:08:50.489Z,23.46
2022-08-16T08:09:20.902Z,23.55
2022-08-16T08:10:29.287Z,23.55
2022-08-16T08:11:21.519Z,23.71
2022-08-16T08:12:31.885Z,23.86
2022-08-16T08:13:20.606Z,23.93
2022-08-16T08:14:29.648Z,24.07
2022-08-16T08:15:25.089Z,24.22
2022-08-16T08:16:20.943Z,24.29
2022-08-16T08:17:20.317Z,24.27
2022-08-16T08:18:29.128Z,24.29
2022-08-16T08:19:20.173Z,24.20
2022-08-16T08:20:26.621Z,24.30
2022-08-16T08:21:27.272Z,24.29
2022-08-16T08:22:22.150Z,24.19
2022-08-16T08:23:19.879Z,24.23
2022-08-16T08:24:19.805Z,24.22
2022-08-16T08:25:19.735Z,24.30
2022-08-16T08:26:19.662Z,24.25
2022-08-16T08:27:22.760Z,24.42
2022-08-16T08:28:20.006Z,24.45
2022-08-16T08:29:22.657Z,24.53
2022-08-16T08:30:52.314Z,24.56
2022-08-16T08:31:19.339Z,24.63
2022-08-16T08:32:57.821Z,24.71
2022-08-16T08:33:19.157Z,24.59
2022-08-16T08:34:19.087Z,24.60
2022-08-16T08:35:19.012Z,24.63
2022-08-16T08:36:22.068Z,24.86
2022-08-16T08:37:18.870Z,24.91
2022-08-16T08:38:44.010Z,25.08
2022-08-16T08:39:20.882Z,25.00
2022-08-16T08:40:18.809Z,25.05
2022-08-16T08:41:20.346Z,25.13
2022-08-16T08:42:25.127Z,25.17
2022-08-16T08:43:18.837Z,25.20
2022-08-16T08:44:28.563Z,25.22
2022-08-16T08:45:43.016Z,25.19
2022-08-16T08:46:21.698Z,25.25
2022-08-16T08:47:18.152Z,25.31
2022-08-16T08:48:35.043Z,25.31
2022-08-16T08:49:18.012Z,25.45
2022-08-16T08:50:32.147Z,25.45
2022-08-16T08:51:17.871Z,25.46
2022-08-16T08:52:34.152Z,25.68
2022-08-16T08:53:17.725Z,25.70
2022-08-16T08:54:20.714Z,25.67
2022-08-16T08:55:17.586Z,25.65
2022-08-16T08:56:23.123Z,25.40
2022-08-16T08:57:17.440Z,25.45
2022-08-16T08:58:18.100Z,25.46
2022-08-16T08:59:20.036Z,25.37
2022-08-16T09:00:17.277Z,25.30
2022-08-16T09:01:17.156Z,25.08
2022-08-16T09:02:19.435Z,25.08
2022-08-16T09:03:17.016Z,25.13
2022-08-16T09:04:17.679Z,25.23
2022-08-16T09:05:16.877Z,25.34
2022-08-16T09:06:18.520Z,25.28
2022-08-16T09:07:16.732Z,25.32
2022-08-16T09:08:16.659Z,25.45
2022-08-16T09:09:17.434Z,25.45
2022-08-16T09:10:20.455Z,25.47
2022-08-16T09:11:18.412Z,25.45
2022-08-16T09:12:35.795Z,25.56
2022-08-16T09:13:16.311Z,25.62
2022-08-16T09:14:24.191Z,25.72
2022-08-16T09:15:16.166Z,25.62
2022-08-16T09:17:02.723Z,25.62
2022-08-16T09:17:38.227Z,25.55
2022-08-16T09:18:26.518Z,25.55
2022-08-16T09:19:15.883Z,25.55
2022-08-16T09:20:16.675Z,25.55
2022-08-16T09:21:15.742Z,25.60
2022-08-16T09:22:19.929Z,25.64
2022-08-16T09:23:15.602Z,25.68
2022-08-16T09:24:29.129Z,25.82
2022-08-16T09:25:15.463Z,25.97
2022-08-16T09:26:44.167Z,25.99
2022-08-16T09:27:15.320Z,25.92
2022-08-16T09:28:38.069Z,25.99
2022-08-16T09:29:23.960Z,25.93
2022-08-16T09:30:33.670Z,26.08
2022-08-16T09:31:15.039Z,26.12
2022-08-16T09:32:28.905Z,26.23
2022-08-16T09:33:14.899Z,26.35
2022-08-16T09:34:19.190Z,26.46
2022-08-16T09:35:14.759Z,26.61
2022-08-16T09:36:31.996Z,26.80
2022-08-16T09:37:17.877Z,26.90
2022-08-16T09:38:31.372Z,26.84
2022-08-16T09:39:16.145Z,26.79
2022-08-16T09:40:33.094Z,26.61
2022-08-16T09:41:14.610Z,26.62
2022-08-16T09:42:14.268Z,26.58
2022-08-16T09:43:46.403Z,26.61
2022-08-16T09:45:12.237Z,26.82
2022-08-16T09:45:18.246Z,26.83
2022-08-16T09:46:45.927Z,26.92
2022-08-16T09:47:13.926Z,26.92
2022-08-16T09:48:36.927Z,27.09
2022-08-16T09:49:13.782Z,27.08
2022-08-16T09:50:13.712Z,26.98
2022-08-16T09:51:13.882Z,26.82
2022-08-16T09:52:13.572Z,26.67
2022-08-16T09:53:15.359Z,26.75
2022-08-16T09:54:16.723Z,26.71
2022-08-16T09:55:13.365Z,26.72
2022-08-16T09:56:13.293Z,26.84
2022-08-16T09:57:13.243Z,27.05
2022-08-16T09:58:37.863Z,27.24
2022-08-16T09:59:13.088Z,27.31
2022-08-16T10:00:42.359Z,27.61
2022-08-16T10:01:12.950Z,27.79
2022-08-16T10:02:26.135Z,27.95
2022-08-16T10:03:12.827Z,28.25
2022-08-16T10:04:31.600Z,28.19
2022-08-16T10:05:12.708Z,27.84
2022-08-16T10:06:12.602Z,27.62
2022-08-16T10:07:15.819Z,27.36
2022-08-16T10:08:26.069Z,27.35
2022-08-16T10:09:12.397Z,27.41
2022-08-16T10:10:12.511Z,27.36
2022-08-16T10:11:12.264Z,27.54
2022-08-16T10:12:19.836Z,27.57
2022-08-16T10:13:12.123Z,27.69
2022-08-16T10:14:12.054Z,27.77
2022-08-16T10:15:15.601Z,27.79
2022-08-16T10:17:11.845Z,27.77
2022-08-16T10:19:00.121Z,27.53
2022-08-16T10:19:11.708Z,27.12
2022-08-16T10:20:18.339Z,26.84
2022-08-16T10:21:11.570Z,26.69
2022-08-16T10:22:12.649Z,26.72
2022-08-16T10:23:17.229Z,26.69
2022-08-16T10:24:11.362Z,26.86
2022-08-16T10:25:11.294Z,27.02
2022-08-16T10:27:19.779Z,27.01
2022-08-16T10:27:26.129Z,27.16
2022-08-16T10:28:27.917Z,27.17
2022-08-16T10:29:11.019Z,27.39
2022-08-16T10:30:24.685Z,27.51
2022-08-16T10:31:14.537Z,27.65
2022-08-16T10:32:10.814Z,27.77
2022-08-16T10:33:10.743Z,27.80
2022-08-16T10:34:31.137Z,28.06
2022-08-16T10:35:10.607Z,28.34
2022-08-16T10:36:12.199Z,28.35
2022-08-16T10:37:10.470Z,28.43
2022-08-16T10:38:10.401Z,28.44
2022-08-16T10:39:10.331Z,28.46
2022-08-16T10:40:29.716Z,28.49
2022-08-16T10:41:10.328Z,28.38
2022-08-16T10:42:10.126Z,27.99
2022-08-16T10:43:18.449Z,27.91
2022-08-16T10:44:09.989Z,27.82
2022-08-16T10:45:09.922Z,27.91
2022-08-16T10:46:39.944Z,28.10
2022-08-16T10:47:09.787Z,28.20
2022-08-16T10:48:24.062Z,28.13
2022-08-16T10:49:09.649Z,28.26
2022-08-16T10:50:18.892Z,28.29
2022-08-16T10:51:09.511Z,28.44
2022-08-16T10:52:18.850Z,28.24
2022-08-16T10:53:09.375Z,28.16
2022-08-16T10:54:29.305Z,28.14
2022-08-16T10:56:44.247Z,28.34
2022-08-16T10:57:12.028Z,28.20
2022-08-16T10:58:11.514Z,28.09
2022-08-16T11:00:21.121Z,27.98
2022-08-16T11:03:37.681Z,27.82
2022-08-16T11:03:42.844Z,27.99
2022-08-16T11:05:04.686Z,27.91
2022-08-16T11:05:10.576Z,27.88
2022-08-16T11:06:12.003Z,27.95
2022-08-16T11:07:08.761Z,28.04
2022-08-16T11:08:08.350Z,28.19
2022-08-16T11:09:25.828Z,28.32
2022-08-16T11:11:10.549Z,28.49
2022-08-16T11:12:13.636Z,28.50
2022-08-16T11:14:11.321Z,28.87
2022-08-16T11:15:12.192Z,28.96
2022-08-16T11:17:10.572Z,28.88
2022-08-16T11:19:04.361Z,28.75
2022-08-16T11:19:12.573Z,28.81
2022-08-16T11:21:07.467Z,29.03
2022-08-16T11:22:38.623Z,29.19
2022-08-16T11:23:07.345Z,29.19
2022-08-16T11:24:39.248Z,29.10
2022-08-16T11:25:57.931Z,28.73
2022-08-16T11:26:23.435Z,28.87
2022-08-16T11:27:23.211Z,28.66
2022-08-16T11:28:06.991Z,28.59
2022-08-16T11:29:14.803Z,28.49
2022-08-16T11:30:09.186Z,28.49
2022-08-16T11:31:06.789Z,28.59
2022-08-16T11:32:07.584Z,28.63
2022-08-16T11:33:06.660Z,28.87
2022-08-16T11:34:06.584Z,28.75
2022-08-16T11:35:14.299Z,28.75
2022-08-16T11:37:06.382Z,28.98
2022-08-16T11:38:47.393Z,28.94
2022-08-16T11:39:06.531Z,28.98
2022-08-16T11:40:06.335Z,29.01
2022-08-16T11:41:06.110Z,29.11
2022-08-16T11:42:16.768Z,29.34
2022-08-16T11:43:05.975Z,29.55
2022-08-16T11:44:05.912Z,29.66
2022-08-16T11:45:05.840Z,29.81
2022-08-16T11:46:44.406Z,29.95
2022-08-16T11:47:05.708Z,29.97
2022-08-16T11:48:05.642Z,29.85
2022-08-16T11:49:09.891Z,29.46
2022-08-16T11:50:05.507Z,29.06
2022-08-16T11:51:05.438Z,28.69
2022-08-16T11:52:05.376Z,28.47
2022-08-16T11:53:05.304Z,28.47
2022-08-16T11:54:05.292Z,28.57
2022-08-16T11:55:05.167Z,28.49
2022-08-16T11:56:05.105Z,28.44
2022-08-16T11:57:08.939Z,28.49
2022-08-16T11:58:04.971Z,28.57
2022-08-16T11:59:04.900Z,28.57
2022-08-16T12:00:04.833Z,28.65
2022-08-16T12:01:04.770Z,28.51
2022-08-16T12:02:31.331Z,28.50
2022-08-16T12:03:04.637Z,28.50
2022-08-16T12:04:04.627Z,28.62
2022-08-16T12:05:04.496Z,28.88
2022-08-16T12:06:04.430Z,29.22
2022-08-16T12:07:04.361Z,29.41
2022-08-16T12:08:05.347Z,29.53
2022-08-16T12:09:04.227Z,29.78
2022-08-16T12:10:04.164Z,29.96
2022-08-16T12:11:04.091Z,29.85
2022-08-16T12:12:04.026Z,29.80
2022-08-16T12:13:03.960Z,30.00
2022-08-16T12:14:04.349Z,30.15
2022-08-16T12:15:03.824Z,30.26
2022-08-16T12:16:03.761Z,30.21
2022-08-16T12:17:03.692Z,30.21
2022-08-16T12:18:03.629Z,30.36
2022-08-16T12:19:04.289Z,30.36
2022-08-16T12:20:04.817Z,30.33
2022-08-16T12:21:03.837Z,30.34
2022-08-16T12:22:05.340Z,30.36
2022-08-16T12:23:03.288Z,30.36
2022-08-16T12:24:03.428Z,29.97
2022-08-16T12:25:03.154Z,29.74
2022-08-16T12:26:06.353Z,29.58
2022-08-16T12:27:03.022Z,29.55
2022-08-16T12:28:03.040Z,29.51
2022-08-16T12:29:02.885Z,29.51
2022-08-16T12:30:02.826Z,29.55
2022-08-16T12:31:02.751Z,29.44
2022-08-16T12:32:35.631Z,29.44
2022-08-16T12:33:03.086Z,29.48
2022-08-16T12:34:02.566Z,29.51
2022-08-16T12:35:03.073Z,29.71
2022-08-16T12:36:02.421Z,29.77
2022-08-16T12:37:02.354Z,29.77
2022-08-16T12:38:08.600Z,29.81
2022-08-16T12:39:02.213Z,29.92
2022-08-16T12:40:02.330Z,30.00
2022-08-16T12:41:02.081Z,29.90
2022-08-16T12:42:02.016Z,29.66
2022-08-16T12:43:01.947Z,29.55
2022-08-16T12:44:01.893Z,29.32
2022-08-16T12:45:01.811Z,29.38
2022-08-16T12:46:02.003Z,29.43
2022-08-16T12:47:01.679Z,29.48
2022-08-16T12:48:31.362Z,29.63
2022-08-16T12:49:01.545Z,29.65
2022-08-16T12:50:01.833Z,29.63
2022-08-16T12:51:01.408Z,29.66
2022-08-16T12:52:02.736Z,29.74
2022-08-16T12:53:01.273Z,29.62
2022-08-16T12:54:01.208Z,29.51
2022-08-16T12:55:01.157Z,29.41
2022-08-16T12:56:01.075Z,29.29
2022-08-16T12:57:01.005Z,29.28
2022-08-16T12:58:00.940Z,29.34
2022-08-16T12:59:00.870Z,29.50
2022-08-16T13:00:00.806Z,29.46